createdAt,value
2018-09-14T00:02:26.588Z,100573.69
2018-09-14T00:05:02.679Z,100584.84
2018-09-14T00:07:36.184Z,100577.45
2018-09-14T00:10:09.904Z,100578.60
2018-09-14T00:12:44.895Z,100577.80
2018-09-14T00:15:16.644Z,100579.89
2018-09-14T00:17:51.044Z,100583.46
2018-09-14T00:20:23.974Z,100583.17
2018-09-14T00:22:56.602Z,100571.16
2018-09-14T00:25:30.092Z,100577.89
2018-09-14T00:28:04.356Z,100575.83
2018-09-14T00:30:36.884Z,100575.18
2018-09-14T00:33:09.425Z,100570.64
2018-09-14T00:35:42.480Z,100569.01
2018-09-14T00:38:15.013Z,100568.78
2018-09-14T00:40:47.592Z,100566.52
2018-09-14T00:43:20.500Z,100563.13
2018-09-14T00:45:53.150Z,100564.09
2018-09-14T00:48:27.964Z,100558.48
2018-09-14T00:51:00.780Z,100559.47
2018-09-14T00:53:34.807Z,100557.86
2018-09-14T00:56:07.463Z,100563.48
2018-09-14T00:58:40.370Z,100561.91
2018-09-14T01:01:13.557Z,100558.34
2018-09-14T01:03:46.084Z,100569.16
2018-09-14T01:06:19.292Z,100569.06
2018-09-14T01:08:52.111Z,100565.87
2018-09-14T01:11:25.613Z,100568.25
2018-09-14T01:13:58.704Z,100564.53
2018-09-14T01:16:31.216Z,100560.52
2018-09-14T01:19:03.856Z,100557.78
2018-09-14T01:21:36.736Z,100557.09
2018-09-14T01:24:09.636Z,100558.32
2018-09-14T01:26:42.783Z,100561.83
2018-09-14T01:29:16.216Z,100555.52
2018-09-14T01:31:48.836Z,100556.59
2018-09-14T01:34:21.668Z,100555.55
2018-09-14T01:36:55.857Z,100552.67
2018-09-14T01:39:28.894Z,100551.69
2018-09-14T01:42:01.467Z,100547.00
2018-09-14T01:44:34.411Z,100552.83
2018-09-14T01:47:07.052Z,100546.11
2018-09-14T01:49:40.563Z,100549.58
2018-09-14T01:52:13.339Z,100547.00
2018-09-14T01:54:45.923Z,100545.88
2018-09-14T01:57:19.020Z,100543.43
2018-09-14T01:59:51.566Z,100545.05
2018-09-14T02:02:24.176Z,100543.78
2018-09-14T02:04:57.117Z,100543.64
2018-09-14T02:07:32.311Z,100543.47
2018-09-14T02:10:05.713Z,100539.82
2018-09-14T02:12:38.292Z,100541.81
2018-09-14T02:15:12.296Z,100542.02
2018-09-14T02:17:45.380Z,100542.87
2018-09-14T02:20:19.227Z,100542.41
2018-09-14T02:22:51.940Z,100535.36
2018-09-14T02:25:24.909Z,100533.20
2018-09-14T02:27:57.456Z,100532.47
2018-09-14T02:30:30.240Z,100527.47
2018-09-14T02:33:03.205Z,100529.15
2018-09-14T02:35:35.776Z,100529.23
2018-09-14T02:38:08.390Z,100524.95
2018-09-14T02:40:41.373Z,100521.98
2018-09-14T02:43:13.990Z,100524.17
2018-09-14T02:45:46.499Z,100522.20
2018-09-14T02:48:19.775Z,100516.97
2018-09-14T02:50:52.472Z,100515.31
2018-09-14T02:53:25.877Z,100518.80
2018-09-14T02:55:59.022Z,100517.94
2018-09-14T02:58:32.488Z,100514.20
2018-09-14T03:01:06.998Z,100516.78
2018-09-14T03:03:39.896Z,100518.13
2018-09-14T03:06:13.244Z,100520.61
2018-09-14T03:08:45.916Z,100519.25
2018-09-14T03:11:18.824Z,100517.87
2018-09-14T03:13:51.404Z,100517.00
2018-09-14T03:16:24.956Z,100520.08
2018-09-14T03:18:58.169Z,100516.16
2018-09-14T03:21:30.732Z,100514.23
2018-09-14T03:24:04.004Z,100513.75
2018-09-14T03:26:36.988Z,100517.86
2018-09-14T03:29:09.580Z,100513.98
2018-09-14T03:31:42.135Z,100510.21
2018-09-14T03:34:15.567Z,100511.63
2018-09-14T03:36:48.073Z,100514.24
2018-09-14T03:39:21.298Z,100517.77
2018-09-14T03:41:53.917Z,100517.34
2018-09-14T03:44:26.468Z,100518.36
2018-09-14T03:46:59.016Z,100515.83
2018-09-14T03:49:31.857Z,100513.94
2018-09-14T03:52:04.396Z,100512.45
2018-09-14T03:54:37.786Z,100517.63
2018-09-14T03:57:10.724Z,100516.33
2018-09-14T03:59:43.126Z,100522.01
2018-09-14T04:02:18.812Z,100523.23
2018-09-14T04:04:52.828Z,100526.74
2018-09-14T04:07:25.357Z,100527.16
2018-09-14T04:09:58.021Z,100526.90
2018-09-14T04:12:31.140Z,100525.94
2018-09-14T04:15:05.213Z,100527.42
2018-09-14T04:17:38.115Z,100520.63
2018-09-14T04:20:11.646Z,100523.99
2018-09-14T04:22:44.204Z,100516.65
2018-09-14T04:25:17.037Z,100519.72
2018-09-14T04:27:49.987Z,100527.23
2018-09-14T04:30:22.624Z,100530.81
2018-09-14T04:32:55.993Z,100530.27
2018-09-14T04:35:28.812Z,100528.34
2018-09-14T04:38:02.423Z,100529.27
2018-09-14T04:40:34.977Z,100529.94
2018-09-14T04:43:07.762Z,100529.92
2018-09-14T04:45:40.957Z,100530.14
2018-09-14T04:48:13.531Z,100532.81
2018-09-14T04:50:46.157Z,100528.00
2018-09-14T04:53:19.037Z,100532.37
2018-09-14T04:55:53.348Z,100531.14
2018-09-14T04:58:26.077Z,100531.66
2018-09-14T05:00:59.097Z,100532.70
2018-09-14T05:03:31.657Z,100529.02
2018-09-14T05:06:05.211Z,100527.81
2018-09-14T05:08:38.452Z,100530.84
2018-09-14T05:11:11.042Z,100532.55
2018-09-14T05:13:43.949Z,100530.83
2018-09-14T05:16:17.213Z,100525.53
2018-09-14T05:18:50.001Z,100535.19
2018-09-14T05:21:22.741Z,100536.03
2018-09-14T05:23:57.168Z,100543.86
2018-09-14T05:26:29.549Z,100539.59
2018-09-14T05:29:02.151Z,100541.16
2018-09-14T05:31:35.036Z,100540.92
2018-09-14T05:34:07.592Z,100544.99
2018-09-14T05:36:41.223Z,100550.40
2018-09-14T05:39:14.438Z,100551.89
2018-09-14T05:41:48.480Z,100548.03
2018-09-14T05:44:21.148Z,100549.27
2018-09-14T05:46:54.322Z,100548.23
2018-09-14T05:49:26.880Z,100547.34
2018-09-14T05:52:00.749Z,100547.40
2018-09-14T05:54:33.374Z,100550.58
2018-09-14T05:57:06.016Z,100555.28
2018-09-14T05:59:40.840Z,100556.72
2018-09-14T06:02:13.540Z,100561.87
2018-09-14T06:04:46.029Z,100558.57
2018-09-14T06:07:19.125Z,100554.59
2018-09-14T06:09:53.475Z,100555.29
2018-09-14T06:12:26.135Z,100556.09
2018-09-14T06:15:00.295Z,100561.68
2018-09-14T06:17:33.896Z,100561.88
2018-09-14T06:20:07.271Z,100559.77
2018-09-14T06:22:41.441Z,100559.74
2018-09-14T06:25:19.048Z,100561.51
2018-09-14T06:27:52.016Z,100559.80
2018-09-14T06:30:24.888Z,100564.00
2018-09-14T06:32:58.117Z,100568.37
2018-09-14T06:35:34.352Z,100570.57
2018-09-14T06:38:07.333Z,100571.68
2018-09-14T06:40:40.195Z,100566.42
2018-09-14T06:43:13.193Z,100564.70
2018-09-14T06:45:45.687Z,100570.23
2018-09-14T06:48:20.740Z,100569.90
2018-09-14T06:50:54.374Z,100567.58
2018-09-14T06:53:27.785Z,100561.33
2018-09-14T06:56:01.278Z,100557.69
2018-09-14T06:58:35.948Z,100556.80
2018-09-14T07:01:08.509Z,100552.70
2018-09-14T07:03:42.189Z,100552.91
2018-09-14T07:06:16.360Z,100550.91
2018-09-14T07:08:50.573Z,100550.11
2018-09-14T07:11:23.326Z,100554.07
2018-09-14T07:13:58.949Z,100553.59
2018-09-14T07:16:32.742Z,100560.84
2018-09-14T07:19:05.605Z,100567.53
2018-09-14T07:21:43.093Z,100569.58
2018-09-14T07:24:15.656Z,100569.44
2018-09-14T07:26:48.816Z,100574.62
2018-09-14T07:29:23.400Z,100573.42
2018-09-14T07:32:00.628Z,100572.05
2018-09-14T07:34:33.652Z,100574.46
2018-09-14T07:37:08.751Z,100574.53
2018-09-14T07:39:48.023Z,100576.70
2018-09-14T07:42:20.976Z,100583.81
2018-09-14T07:44:55.157Z,100578.30
2018-09-14T07:47:29.660Z,100581.52
2018-09-14T07:50:05.824Z,100580.79
2018-09-14T07:52:44.161Z,100586.92
2018-09-14T07:55:16.764Z,100585.52
2018-09-14T07:57:54.311Z,100588.25
2018-09-14T08:00:26.949Z,100590.17
2018-09-14T08:02:59.968Z,100583.41
2018-09-14T08:05:34.069Z,100581.21
2018-09-14T08:08:07.909Z,100584.36
2018-09-14T08:10:40.400Z,100584.79
2018-09-14T08:13:14.596Z,100586.90
2018-09-14T08:15:47.136Z,100584.77
2018-09-14T08:18:21.803Z,100590.36
2018-09-14T08:20:55.565Z,100591.15
2018-09-14T08:23:32.228Z,100591.84
2018-09-14T08:26:07.744Z,100584.83
2018-09-14T08:28:42.754Z,100581.52
2018-09-14T08:31:24.048Z,100584.13
2018-09-14T08:33:59.460Z,100588.05
2018-09-14T08:36:32.769Z,100585.87
2018-09-14T08:39:12.195Z,100586.39
2018-09-14T08:41:46.120Z,100591.76
2018-09-14T08:44:19.032Z,100592.73
2018-09-14T08:46:54.323Z,100591.67
2018-09-14T08:49:33.596Z,100597.18
2018-09-14T08:52:06.287Z,100594.41
2018-09-14T08:54:39.642Z,100591.51
2018-09-14T08:57:13.909Z,100590.27
2018-09-14T08:59:49.285Z,100589.93
2018-09-14T09:02:21.891Z,100589.33
2018-09-14T09:04:55.288Z,100592.05
2018-09-14T09:07:28.616Z,100595.04
2018-09-14T09:10:01.229Z,100600.63
2018-09-14T09:12:36.013Z,100595.91
2018-09-14T09:15:19.629Z,100596.01
2018-09-14T09:17:54.597Z,100595.72
2018-09-14T09:20:29.452Z,100591.19
2018-09-14T09:23:03.467Z,100588.65
2018-09-14T09:25:37.712Z,100591.56
2018-09-14T09:28:11.633Z,100597.06
2018-09-14T09:30:46.009Z,100596.30
2018-09-14T09:33:19.418Z,100592.05
2018-09-14T09:35:54.287Z,100591.64
2018-09-14T09:38:29.104Z,100590.92
2018-09-14T09:41:03.156Z,100588.72
2018-09-14T09:43:37.022Z,100593.09
2018-09-14T09:46:10.401Z,100592.13
2018-09-14T09:48:43.056Z,100588.03
2018-09-14T09:51:16.148Z,100582.63
2018-09-14T09:53:49.859Z,100577.55
2018-09-14T09:56:22.420Z,100577.22
2018-09-14T09:58:55.216Z,100576.03
2018-09-14T10:01:33.176Z,100574.86
2018-09-14T10:04:13.780Z,100577.95
2018-09-14T10:06:48.019Z,100581.28
2018-09-14T10:09:21.479Z,100578.34
2018-09-14T10:11:55.996Z,100576.84
2018-09-14T10:14:32.453Z,100579.97
2018-09-14T10:17:10.481Z,100576.24
2018-09-14T10:19:44.740Z,100576.39
2018-09-14T10:22:21.343Z,100579.94
2018-09-14T10:24:54.900Z,100577.34
2018-09-14T10:27:28.222Z,100580.09
2018-09-14T10:30:00.756Z,100577.08
2018-09-14T10:32:38.825Z,100574.11
2018-09-14T10:35:13.383Z,100572.77
2018-09-14T10:37:47.305Z,100566.81
2018-09-14T10:40:24.790Z,100565.24
2018-09-14T10:42:57.792Z,100554.74
2018-09-14T10:45:31.617Z,100547.00
2018-09-14T10:48:06.014Z,100553.02
2018-09-14T10:50:43.575Z,100548.34
2018-09-14T10:53:20.034Z,100553.25
2018-09-14T10:55:52.599Z,100549.65
2018-09-14T10:58:41.156Z,100543.89
2018-09-14T11:01:15.612Z,100548.08
2018-09-14T11:03:49.984Z,100551.30
2018-09-14T11:06:25.633Z,100548.38
2018-09-14T11:08:59.911Z,100539.16
2018-09-14T11:11:33.700Z,100545.77
2018-09-14T11:14:12.540Z,100538.01
2018-09-14T11:16:46.939Z,100541.81
2018-09-14T11:19:21.029Z,100529.08
2018-09-14T11:21:53.608Z,100529.00
2018-09-14T11:24:27.590Z,100529.59
2018-09-14T11:27:00.284Z,100529.13
2018-09-14T11:29:33.773Z,100528.31
2018-09-14T11:32:09.501Z,100526.95
2018-09-14T11:34:44.045Z,100525.00
2018-09-14T11:37:18.358Z,100519.02
2018-09-14T11:39:53.345Z,100525.50
2018-09-14T11:42:26.910Z,100518.21
2018-09-14T11:45:02.683Z,100511.42
2018-09-14T11:47:36.759Z,100506.95
2018-09-14T11:50:10.650Z,100503.21
2018-09-14T11:52:44.716Z,100508.06
2018-09-14T11:55:17.625Z,100502.34
2018-09-14T11:57:52.249Z,100501.78
2018-09-14T12:00:26.238Z,100497.15
2018-09-14T12:03:00.316Z,100505.27
2018-09-14T12:05:35.535Z,100501.09
2018-09-14T12:08:09.215Z,100499.44
2018-09-14T12:10:43.196Z,100492.40
2018-09-14T12:13:17.934Z,100485.80
2018-09-14T12:16:08.668Z,100476.11
2018-09-14T12:18:42.233Z,100479.35
2018-09-14T12:21:17.319Z,100475.47
2018-09-14T12:23:51.624Z,100463.39
2018-09-14T12:26:26.372Z,100460.45
2018-09-14T12:28:59.635Z,100452.59
2018-09-14T12:31:32.505Z,100448.16
2018-09-14T12:34:05.284Z,100456.92
2018-09-14T12:36:38.097Z,100453.80
2018-09-14T12:39:11.592Z,100446.38
2018-09-14T12:41:51.898Z,100452.79
2018-09-14T12:44:27.318Z,100449.70
2018-09-14T12:47:02.886Z,100447.61
2018-09-14T12:49:39.324Z,100448.97
2018-09-14T12:52:12.972Z,100439.96
2018-09-14T12:54:47.487Z,100438.78
2018-09-14T12:57:22.225Z,100430.26
2018-09-14T12:59:55.829Z,100436.97
2018-09-14T13:02:35.353Z,100434.88
2018-09-14T13:05:09.453Z,100433.83
2018-09-14T13:07:44.307Z,100437.27
2018-09-14T13:10:17.317Z,100431.80
2018-09-14T13:12:50.876Z,100431.01
2018-09-14T13:15:25.113Z,100426.39
2018-09-14T13:18:01.091Z,100431.17
2018-09-14T13:20:34.719Z,100430.13
2018-09-14T13:23:08.277Z,100425.55
2018-09-14T13:25:42.782Z,100430.16
2018-09-14T13:28:17.735Z,100425.69
2018-09-14T13:30:51.670Z,100426.14
2018-09-14T13:33:27.730Z,100419.03
2018-09-14T13:36:00.939Z,100410.50
2018-09-14T13:38:34.844Z,100407.89
2018-09-14T13:41:14.068Z,100409.85
2018-09-14T13:43:49.039Z,100408.45
2018-09-14T13:46:24.804Z,100411.09
2018-09-14T13:48:58.725Z,100410.22
2018-09-14T13:51:31.816Z,100404.83
2018-09-14T13:54:04.658Z,100407.18
2018-09-14T13:56:38.814Z,100408.75
2018-09-14T13:59:12.980Z,100413.02
2018-09-14T14:01:45.818Z,100417.34
2018-09-14T14:04:21.987Z,100409.56
2018-09-14T14:06:57.280Z,100408.31
2018-09-14T14:09:30.326Z,100406.70
2018-09-14T14:12:03.857Z,100400.77
2018-09-14T14:14:42.713Z,100400.20
2018-09-14T14:17:19.256Z,100403.65
2018-09-14T14:19:53.763Z,100401.23
2018-09-14T14:22:28.121Z,100399.80
2018-09-14T14:25:01.132Z,100395.63
2018-09-14T14:27:33.778Z,100397.55
2018-09-14T14:30:08.597Z,100392.88
2018-09-14T14:32:43.923Z,100397.88
2018-09-14T14:35:18.120Z,100401.17
2018-09-14T14:37:54.733Z,100397.18
2018-09-14T14:40:27.277Z,100391.23
2018-09-14T14:42:59.947Z,100391.70
2018-09-14T14:45:33.155Z,100386.05
2018-09-14T14:48:06.830Z,100381.14
2018-09-14T14:50:40.937Z,100376.82
2018-09-14T14:53:15.728Z,100381.39
2018-09-14T14:55:49.745Z,100386.83
2018-09-14T14:58:23.647Z,100383.89
2018-09-14T15:00:58.257Z,100382.44
2018-09-14T15:03:32.349Z,100380.92
2018-09-14T15:06:05.956Z,100380.06
2018-09-14T15:08:38.548Z,100390.61
2018-09-14T15:11:11.560Z,100389.34
2018-09-14T15:13:45.246Z,100389.22
2018-09-14T15:16:18.177Z,100396.99
2018-09-14T15:18:54.371Z,100394.39
2018-09-14T15:21:27.681Z,100385.92
2018-09-14T15:24:02.776Z,100387.02
2018-09-14T15:26:44.621Z,100377.25
2018-09-14T15:29:20.532Z,100381.62
2018-09-14T15:31:56.309Z,100392.72
2018-09-14T15:34:28.983Z,100378.80
2018-09-14T15:37:05.479Z,100382.69
2018-09-14T15:39:38.162Z,100388.28
2018-09-14T15:42:11.152Z,100382.59
2018-09-14T15:44:45.017Z,100387.52
2018-09-14T15:47:19.116Z,100386.27
2018-09-14T15:49:52.305Z,100383.69
2018-09-14T15:52:24.923Z,100379.70
2018-09-14T15:55:00.389Z,100387.52
2018-09-14T15:57:33.415Z,100385.72
2018-09-14T16:00:07.853Z,100390.64
2018-09-14T16:02:40.560Z,100389.40
2018-09-14T16:05:13.272Z,100385.59
2018-09-14T16:07:48.205Z,100384.91
2018-09-14T16:10:21.765Z,100388.80
2018-09-14T16:12:55.348Z,100394.95
2018-09-14T16:15:27.974Z,100395.93
2018-09-14T16:18:00.790Z,100392.53
2018-09-14T16:20:34.364Z,100394.95
2018-09-14T16:23:08.088Z,100395.85
2018-09-14T16:25:41.857Z,100401.64
2018-09-14T16:28:15.601Z,100399.23
2018-09-14T16:30:48.105Z,100397.72
2018-09-14T16:33:23.469Z,100397.14
2018-09-14T16:35:57.446Z,100397.86
2018-09-14T16:38:34.076Z,100402.45
2018-09-14T16:41:09.204Z,100399.41
2018-09-14T16:43:44.468Z,100400.82
2018-09-14T16:46:19.318Z,100401.79
2018-09-14T16:48:54.557Z,100401.52
2018-09-14T16:51:27.900Z,100396.11
2018-09-14T16:54:03.943Z,100391.45
2018-09-14T16:56:37.068Z,100397.03
2018-09-14T16:59:12.285Z,100396.47
2018-09-14T17:01:46.388Z,100395.66
2018-09-14T17:04:21.372Z,100392.98
2018-09-14T17:06:55.384Z,100394.67
2018-09-14T17:09:31.375Z,100394.89
2018-09-14T17:12:09.562Z,100392.61
2018-09-14T17:14:42.236Z,100402.19
2018-09-14T17:17:14.753Z,100401.55
2018-09-14T17:19:48.363Z,100406.73
2018-09-14T17:22:21.524Z,100406.23
2018-09-14T17:24:59.321Z,100405.86
2018-09-14T17:27:33.397Z,100410.33
2018-09-14T17:30:08.619Z,100410.41
2018-09-14T17:32:42.841Z,100408.55
2018-09-14T17:35:17.949Z,100411.86
2018-09-14T17:37:52.099Z,100413.06
2018-09-14T17:40:27.972Z,100413.16
2018-09-14T17:43:00.629Z,100415.41
2018-09-14T17:45:35.676Z,100410.94
2018-09-14T17:48:10.902Z,100416.23
2018-09-14T17:50:49.695Z,100416.81
2018-09-14T17:53:23.954Z,100417.36
2018-09-14T17:55:57.038Z,100414.72
2018-09-14T17:58:31.816Z,100419.53
2018-09-14T18:01:07.270Z,100415.16
2018-09-14T18:03:40.890Z,100417.00
2018-09-14T18:06:18.114Z,100420.64
2018-09-14T18:08:55.732Z,100418.16
2018-09-14T18:11:30.848Z,100417.02
2018-09-14T18:14:08.522Z,100420.72
2018-09-14T18:16:43.640Z,100423.11
2018-09-14T18:19:18.807Z,100424.48
2018-09-14T18:21:57.665Z,100433.16
2018-09-14T18:24:35.621Z,100434.96
2018-09-14T18:27:10.625Z,100429.95
2018-09-14T18:29:47.031Z,100436.74
2018-09-14T18:32:21.327Z,100439.80
2018-09-14T18:34:54.733Z,100443.77
2018-09-14T18:37:30.159Z,100444.98
2018-09-14T18:40:04.179Z,100450.27
2018-09-14T18:42:40.557Z,100447.82
2018-09-14T18:45:18.251Z,100452.80
2018-09-14T18:47:51.589Z,100451.86
2018-09-14T18:50:27.417Z,100453.89
2018-09-14T18:53:02.381Z,100449.01
2018-09-14T18:55:35.693Z,100452.74
2018-09-14T18:58:11.706Z,100453.52
2018-09-14T19:00:53.587Z,100452.08
2018-09-14T19:03:31.075Z,100456.41
2018-09-14T19:06:06.048Z,100453.64
2018-09-14T19:08:44.811Z,100459.06
2018-09-14T19:11:22.761Z,100458.55
2018-09-14T19:13:58.906Z,100467.26
2018-09-14T19:16:33.949Z,100464.69
2018-09-14T19:19:07.635Z,100469.66
2018-09-14T19:21:44.399Z,100471.59
2018-09-14T19:24:18.576Z,100471.58
2018-09-14T19:26:51.177Z,100480.42
2018-09-14T19:29:31.733Z,100486.62
2018-09-14T19:32:07.850Z,100480.30
2018-09-14T19:34:43.719Z,100481.83
2018-09-14T19:37:23.899Z,100486.27
2018-09-14T19:39:57.325Z,100480.98
2018-09-14T19:42:30.795Z,100481.99
2018-09-14T19:45:07.466Z,100481.50
2018-09-14T19:47:43.385Z,100478.00
2018-09-14T19:50:16.312Z,100472.58
2018-09-14T19:52:49.546Z,100470.45
2018-09-14T19:55:26.561Z,100463.98
2018-09-14T19:58:03.058Z,100464.48
2018-09-14T20:00:40.819Z,100468.95
2018-09-14T20:03:15.485Z,100475.05
2018-09-14T20:05:51.709Z,100480.45
2018-09-14T20:08:28.697Z,100487.03
2018-09-14T20:11:02.741Z,100489.69
2018-09-14T20:13:40.412Z,100492.20
2018-09-14T20:16:14.987Z,100489.62
2018-09-14T20:18:52.119Z,100495.61
2018-09-14T20:21:26.278Z,100494.42
2018-09-14T20:24:01.235Z,100491.64
2018-09-14T20:26:35.388Z,100499.17
2018-09-14T20:29:12.668Z,100501.19
2018-09-14T20:31:47.097Z,100497.13
2018-09-14T20:34:20.317Z,100497.53
2018-09-14T20:36:54.445Z,100492.31
2018-09-14T20:39:27.309Z,100498.59
2018-09-14T20:41:59.814Z,100498.34
2018-09-14T20:44:34.679Z,100498.08
2018-09-14T20:47:16.036Z,100504.67
2018-09-14T20:49:50.892Z,100501.83
2018-09-14T20:52:27.062Z,100500.71
2018-09-14T20:54:59.701Z,100505.02
2018-09-14T20:57:33.653Z,100509.52
2018-09-14T21:00:09.174Z,100504.80
2018-09-14T21:02:43.828Z,100510.23
2018-09-14T21:05:17.286Z,100512.34
2018-09-14T21:07:51.984Z,100511.27
2018-09-14T21:10:26.904Z,100518.69
2018-09-14T21:13:01.743Z,100518.27
2018-09-14T21:15:36.550Z,100527.72
2018-09-14T21:18:09.697Z,100525.90
2018-09-14T21:20:44.353Z,100524.26
2018-09-14T21:23:18.127Z,100530.80
2018-09-14T21:25:52.732Z,100527.26
2018-09-14T21:28:27.646Z,100529.89
2018-09-14T21:31:03.988Z,100533.95
2018-09-14T21:33:36.901Z,100533.63
2018-09-14T21:36:10.033Z,100535.05
2018-09-14T21:38:45.343Z,100537.86
2018-09-14T21:41:24.402Z,100540.58
2018-09-14T21:44:03.588Z,100540.22
2018-09-14T21:46:38.648Z,100546.80
2018-09-14T21:49:14.445Z,100547.58
2018-09-14T21:51:46.937Z,100554.24
2018-09-14T21:54:19.625Z,100552.72
2018-09-14T21:56:54.698Z,100555.33
2018-09-14T21:59:30.166Z,100555.19
2018-09-14T22:02:08.828Z,100554.38
2018-09-14T22:04:48.490Z,100550.53
2018-09-14T22:07:23.708Z,100556.45
2018-09-14T22:09:59.629Z,100562.19
2018-09-14T22:12:35.149Z,100556.02
2018-09-14T22:15:07.646Z,100559.05
2018-09-14T22:17:44.161Z,100561.09
2018-09-14T22:20:22.876Z,100561.72
2018-09-14T22:22:56.600Z,100555.66
2018-09-14T22:25:31.549Z,100553.78
2018-09-14T22:28:06.603Z,100559.11
2018-09-14T22:30:46.472Z,100561.54
2018-09-14T22:33:21.917Z,100557.80
2018-09-14T22:35:55.820Z,100555.90
2018-09-14T22:38:29.280Z,100556.29
2018-09-14T22:41:02.671Z,100556.98
2018-09-14T22:43:35.642Z,100560.85
2018-09-14T22:46:10.485Z,100556.94
2018-09-14T22:48:47.020Z,100553.07
2018-09-14T22:51:19.891Z,100552.42
2018-09-14T22:53:52.506Z,100551.11
2018-09-14T22:56:25.321Z,100548.75
2018-09-14T22:58:57.876Z,100547.78
2018-09-14T23:01:36.490Z,100545.08
2018-09-14T23:04:10.191Z,100546.61
2018-09-14T23:06:42.804Z,100549.20
2018-09-14T23:09:16.745Z,100550.06
2018-09-14T23:11:50.973Z,100548.80
2018-09-14T23:14:24.483Z,100550.03
2018-09-14T23:17:00.969Z,100555.37
2018-09-14T23:19:33.611Z,100554.52
2018-09-14T23:22:08.666Z,100553.27
2018-09-14T23:24:43.032Z,100552.66
2018-09-14T23:27:16.134Z,100558.42
2018-09-14T23:29:48.811Z,100554.34
2018-09-14T23:32:22.714Z,100555.79
2018-09-14T23:34:55.400Z,100558.38
2018-09-14T23:37:30.976Z,100559.59
2018-09-14T23:40:06.466Z,100565.66
2018-09-14T23:42:41.500Z,100561.89
2018-09-14T23:45:18.934Z,100566.25
2018-09-14T23:47:52.764Z,100565.68
2018-09-14T23:50:26.936Z,100567.45
2018-09-14T23:53:00.034Z,100570.56
2018-09-14T23:55:34.668Z,100573.39
2018-09-14T23:58:11.337Z,100581.89
